SIA422 WSSS-VNKT
Flight info
| Callsign | SIA422 |
|---|---|
| Flight time | 4h 28m |
| Altitude | 40000 |
| Route | WSSS/20C N0486F400 VMR9B VMR B469 VPK M751 VKB M626 BGO L507 CEA R325 DUMKA R581 MONDA G463 ROMEO ROME3R VNKT/02 |
| Aircraft | A359/H-SDE2E3GHIJ3J4J5LM1ORWXY/LB1D1 |
Departure
| Time | 2026-05-07 07:21 |
|---|---|
| Airport | Singapore Changi Airport (WSSS) |
Arrival
| Time | 2026-05-07 11:49 |
|---|---|
| Airport | Tribhuvan International Airport (VNKT) |
| Time | Latitude | Longitude | Altitude | Speed | Heading |
|---|---|---|---|---|---|
| 2026-05-07 07:01 | 1.35987 | 103.99222 | 22 ft | 0 kts | 292° |
| 2026-05-07 07:10 | 1.35985 | 103.99225 | 65 ft | 3 kts | 292° |
| 2026-05-07 07:11 | 1.35975 | 103.99250 | 39 ft | 4 kts | 292° |
| 2026-05-07 07:11 | 1.35967 | 103.99270 | 37 ft | 4 kts | 303° |
| 2026-05-07 07:11 | 1.35954 | 103.99284 | 35 ft | 4 kts | 343° |
| 2026-05-07 07:11 | 1.35933 | 103.99285 | 37 ft | 4 kts | 18° |
| 2026-05-07 07:12 | 1.35922 | 103.99281 | 38 ft | 0 kts | 22° |
| 2026-05-07 07:15 | 1.35941 | 103.99290 | 35 ft | 5 kts | 23° |
| 2026-05-07 07:16 | 1.35980 | 103.99306 | 38 ft | 7 kts | 23° |
| 2026-05-07 07:16 | 1.36031 | 103.99328 | 39 ft | 9 kts | 23° |
| 2026-05-07 07:16 | 1.36098 | 103.99356 | 39 ft | 11 kts | 23° |
| 2026-05-07 07:16 | 1.36178 | 103.99389 | 39 ft | 13 kts | 22° |
| 2026-05-07 07:17 | 1.36267 | 103.99433 | 39 ft | 15 kts | 39° |
| 2026-05-07 07:17 | 1.36327 | 103.99511 | 39 ft | 14 kts | 67° |
| 2026-05-07 07:17 | 1.36306 | 103.99604 | 39 ft | 13 kts | 112° |
| 2026-05-07 07:17 | 1.36270 | 103.99690 | 38 ft | 14 kts | 112° |
| 2026-05-07 07:18 | 1.36232 | 103.99780 | 38 ft | 13 kts | 113° |
| 2026-05-07 07:18 | 1.36194 | 103.99866 | 36 ft | 13 kts | 117° |
| 2026-05-07 07:18 | 1.36126 | 103.99868 | 36 ft | 11 kts | 201° |
| 2026-05-07 07:18 | 1.36111 | 103.99862 | 36 ft | 0 kts | 201° |
| 2026-05-07 07:20 | 1.36062 | 103.99843 | 36 ft | 25 kts | 202° |
| 2026-05-07 07:21 | 1.35668 | 103.99677 | 39 ft | 94 kts | 203° |
| 2026-05-07 07:21 | 1.34877 | 103.99343 | 40 ft | 151 kts | 203° |
| 2026-05-07 07:21 | 1.33833 | 103.98902 | 544 ft | 159 kts | 202° |
| 2026-05-07 07:21 | 1.32804 | 103.98457 | 1187 ft | 168 kts | 203° |
| 2026-05-07 07:22 | 1.31653 | 103.97968 | 1516 ft | 190 kts | 202° |
| 2026-05-07 07:22 | 1.30388 | 103.97437 | 1844 ft | 212 kts | 202° |
| 2026-05-07 07:22 | 1.28939 | 103.96828 | 2090 ft | 240 kts | 202° |
| 2026-05-07 07:22 | 1.27335 | 103.96151 | 2527 ft | 257 kts | 202° |
| 2026-05-07 07:23 | 1.25658 | 103.95455 | 3209 ft | 263 kts | 202° |
| 2026-05-07 07:23 | 1.23875 | 103.94996 | 3907 ft | 267 kts | 183° |
| 2026-05-07 07:23 | 1.22062 | 103.95361 | 4634 ft | 270 kts | 153° |
| 2026-05-07 07:23 | 1.20583 | 103.96415 | 5328 ft | 273 kts | 139° |
| 2026-05-07 07:24 | 1.19161 | 103.97684 | 6104 ft | 275 kts | 137° |
| 2026-05-07 07:24 | 1.17746 | 103.98976 | 6811 ft | 278 kts | 136° |
| 2026-05-07 07:24 | 1.16591 | 104.00523 | 7534 ft | 279 kts | 115° |
| 2026-05-07 07:24 | 1.16176 | 104.02414 | 8307 ft | 282 kts | 89° |
| 2026-05-07 07:25 | 1.17784 | 104.05956 | 9840 ft | 289 kts | 52° |
| 2026-05-07 07:25 | 1.19048 | 104.07515 | 10390 ft | 299 kts | 51° |
| 2026-05-07 07:25 | 1.20575 | 104.09028 | 10663 ft | 320 kts | 40° |
| 2026-05-07 07:26 | 1.22487 | 104.10299 | 10895 ft | 339 kts | 28° |
| 2026-05-07 07:26 | 1.24800 | 104.10987 | 11126 ft | 359 kts | 6° |
| 2026-05-07 07:26 | 1.27337 | 104.10796 | 11439 ft | 372 kts | 350° |
| 2026-05-07 07:26 | 1.29903 | 104.10268 | 11935 ft | 377 kts | 349° |
| 2026-05-07 07:27 | 1.32452 | 104.09714 | 12474 ft | 381 kts | 349° |
| 2026-05-07 07:27 | 1.35053 | 104.09154 | 13034 ft | 384 kts | 349° |
| 2026-05-07 07:27 | 1.37672 | 104.08594 | 13572 ft | 387 kts | 349° |
| 2026-05-07 07:27 | 1.40317 | 104.08031 | 14051 ft | 390 kts | 349° |
| 2026-05-07 07:28 | 1.42986 | 104.07464 | 14517 ft | 393 kts | 349° |
| 2026-05-07 07:28 | 1.45674 | 104.06895 | 14991 ft | 396 kts | 349° |
| 2026-05-07 07:28 | 1.48371 | 104.06323 | 15448 ft | 398 kts | 349° |
| 2026-05-07 07:28 | 1.51095 | 104.05747 | 15910 ft | 401 kts | 349° |
| 2026-05-07 07:29 | 1.53809 | 104.05172 | 16356 ft | 404 kts | 349° |
| 2026-05-07 07:29 | 1.56571 | 104.04588 | 16817 ft | 407 kts | 349° |
| 2026-05-07 07:29 | 1.59350 | 104.04000 | 17275 ft | 409 kts | 349° |
| 2026-05-07 07:29 | 1.62154 | 104.03406 | 17723 ft | 412 kts | 349° |
| 2026-05-07 07:30 | 1.64967 | 104.02811 | 18151 ft | 415 kts | 349° |
| 2026-05-07 07:30 | 1.67800 | 104.02211 | 18521 ft | 417 kts | 349° |
| 2026-05-07 07:30 | 1.70663 | 104.01605 | 18891 ft | 420 kts | 349° |
| 2026-05-07 07:30 | 1.73535 | 104.00997 | 19264 ft | 423 kts | 349° |
| 2026-05-07 07:31 | 1.76418 | 104.00387 | 19643 ft | 425 kts | 349° |
| 2026-05-07 07:31 | 1.79323 | 103.99772 | 20015 ft | 428 kts | 349° |
| 2026-05-07 07:31 | 1.82210 | 103.99162 | 20383 ft | 430 kts | 349° |
| 2026-05-07 07:31 | 1.85151 | 103.98539 | 20773 ft | 433 kts | 349° |
| 2026-05-07 07:32 | 1.88105 | 103.97913 | 21133 ft | 435 kts | 349° |
| 2026-05-07 07:32 | 1.91074 | 103.97284 | 21511 ft | 438 kts | 349° |
| 2026-05-07 07:32 | 1.94067 | 103.96650 | 21887 ft | 440 kts | 349° |
| 2026-05-07 07:32 | 1.97074 | 103.96014 | 22247 ft | 443 kts | 349° |
| 2026-05-07 07:33 | 2.00112 | 103.95371 | 22636 ft | 446 kts | 350° |
| 2026-05-07 07:33 | 2.03155 | 103.94726 | 23001 ft | 449 kts | 350° |
| 2026-05-07 07:33 | 2.06215 | 103.94079 | 23378 ft | 451 kts | 350° |
| 2026-05-07 07:33 | 2.09310 | 103.93424 | 23689 ft | 454 kts | 349° |
| 2026-05-07 07:34 | 2.12372 | 103.92776 | 23998 ft | 456 kts | 349° |
| 2026-05-07 07:34 | 2.15484 | 103.92116 | 24334 ft | 458 kts | 349° |
| 2026-05-07 07:34 | 2.18613 | 103.91454 | 24659 ft | 461 kts | 349° |
| 2026-05-07 07:34 | 2.21761 | 103.90787 | 24994 ft | 463 kts | 349° |
| 2026-05-07 07:35 | 2.24920 | 103.90118 | 25346 ft | 466 kts | 349° |
| 2026-05-07 07:35 | 2.28100 | 103.89445 | 25707 ft | 468 kts | 349° |
| 2026-05-07 07:35 | 2.31298 | 103.88767 | 26098 ft | 471 kts | 349° |
| 2026-05-07 07:35 | 2.34519 | 103.88085 | 26488 ft | 473 kts | 349° |
| 2026-05-07 07:36 | 2.37741 | 103.87353 | 26866 ft | 477 kts | 346° |
| 2026-05-07 07:36 | 2.40851 | 103.86274 | 27264 ft | 480 kts | 339° |
| 2026-05-07 07:36 | 2.43945 | 103.84961 | 27678 ft | 483 kts | 337° |
| 2026-05-07 07:36 | 2.47027 | 103.83559 | 28081 ft | 487 kts | 336° |
| 2026-05-07 07:37 | 2.50100 | 103.82120 | 28479 ft | 489 kts | 335° |
| 2026-05-07 07:37 | 2.53194 | 103.80665 | 28889 ft | 492 kts | 335° |
| 2026-05-07 07:37 | 2.56304 | 103.79211 | 29267 ft | 495 kts | 336° |
| 2026-05-07 07:37 | 2.59436 | 103.77759 | 29631 ft | 497 kts | 336° |
| 2026-05-07 07:38 | 2.62590 | 103.76306 | 29965 ft | 500 kts | 336° |
| 2026-05-07 07:38 | 2.65722 | 103.74870 | 30242 ft | 503 kts | 336° |
| 2026-05-07 07:38 | 2.68921 | 103.73407 | 30522 ft | 505 kts | 336° |
| 2026-05-07 07:38 | 2.72126 | 103.71943 | 30810 ft | 508 kts | 336° |
| 2026-05-07 07:39 | 2.75351 | 103.70476 | 31102 ft | 509 kts | 336° |
| 2026-05-07 07:39 | 2.78592 | 103.69020 | 31367 ft | 511 kts | 336° |
| 2026-05-07 07:39 | 2.81854 | 103.67565 | 31651 ft | 513 kts | 336° |
| 2026-05-07 07:39 | 2.85121 | 103.66109 | 31912 ft | 515 kts | 336° |
| 2026-05-07 07:40 | 2.88400 | 103.64647 | 32171 ft | 517 kts | 336° |
| 2026-05-07 07:40 | 2.91693 | 103.63181 | 32561 ft | 516 kts | 336° |
| 2026-05-07 07:40 | 2.94963 | 103.61728 | 32961 ft | 514 kts | 336° |
| 2026-05-07 07:40 | 2.98228 | 103.60276 | 33361 ft | 513 kts | 336° |
| 2026-05-07 07:41 | 3.01485 | 103.58826 | 33731 ft | 512 kts | 336° |
| 2026-05-07 07:41 | 3.04733 | 103.57381 | 34050 ft | 511 kts | 336° |
| 2026-05-07 07:41 | 3.07979 | 103.55935 | 34350 ft | 510 kts | 336° |
| 2026-05-07 07:41 | 3.11182 | 103.54509 | 34633 ft | 510 kts | 336° |
| 2026-05-07 07:42 | 3.14429 | 103.53063 | 34933 ft | 509 kts | 336° |
| 2026-05-07 07:42 | 3.17665 | 103.51623 | 35228 ft | 508 kts | 336° |
| 2026-05-07 07:42 | 3.20892 | 103.50177 | 35519 ft | 508 kts | 336° |
| 2026-05-07 07:42 | 3.24112 | 103.48726 | 35807 ft | 507 kts | 336° |
| 2026-05-07 07:43 | 3.27339 | 103.47270 | 36081 ft | 507 kts | 336° |
| 2026-05-07 07:43 | 3.30550 | 103.45822 | 36351 ft | 506 kts | 336° |
| 2026-05-07 07:43 | 3.33764 | 103.44373 | 36621 ft | 506 kts | 336° |
| 2026-05-07 07:43 | 3.36934 | 103.42946 | 36906 ft | 505 kts | 336° |
| 2026-05-07 07:44 | 3.40142 | 103.41507 | 37188 ft | 504 kts | 337° |
| 2026-05-07 07:44 | 3.43382 | 103.40146 | 37470 ft | 503 kts | 339° |
| 2026-05-07 07:44 | 3.46630 | 103.38865 | 37754 ft | 502 kts | 340° |
| 2026-05-07 07:44 | 3.49887 | 103.37610 | 38039 ft | 501 kts | 340° |
| 2026-05-07 07:45 | 3.53136 | 103.36360 | 38303 ft | 500 kts | 340° |
| 2026-05-07 07:45 | 3.56374 | 103.35103 | 38537 ft | 499 kts | 339° |
| 2026-05-07 07:45 | 3.59605 | 103.33836 | 38764 ft | 498 kts | 339° |
| 2026-05-07 07:45 | 3.62821 | 103.32566 | 38999 ft | 496 kts | 339° |
| 2026-05-07 07:46 | 3.66019 | 103.31297 | 39226 ft | 495 kts | 339° |
| 2026-05-07 07:46 | 3.69217 | 103.30026 | 39439 ft | 493 kts | 339° |
| 2026-05-07 07:46 | 3.72409 | 103.28755 | 39639 ft | 492 kts | 339° |
| 2026-05-07 07:46 | 3.75553 | 103.27504 | 39761 ft | 493 kts | 339° |
| 2026-05-07 07:47 | 3.78740 | 103.26237 | 39774 ft | 492 kts | 339° |
| 2026-05-07 07:47 | 3.85109 | 103.23704 | 39775 ft | 492 kts | 339° |
| 2026-05-07 07:48 | 3.91470 | 103.21175 | 39778 ft | 492 kts | 339° |
| 2026-05-07 07:48 | 3.97800 | 103.18658 | 39779 ft | 492 kts | 339° |
| 2026-05-07 07:49 | 4.04157 | 103.16130 | 39783 ft | 492 kts | 339° |
| 2026-05-07 07:49 | 4.10528 | 103.13595 | 39787 ft | 492 kts | 339° |
| 2026-05-07 07:50 | 4.16893 | 103.11061 | 39788 ft | 492 kts | 339° |
| 2026-05-07 07:50 | 4.23225 | 103.08542 | 39787 ft | 492 kts | 339° |
| 2026-05-07 07:51 | 4.29591 | 103.06008 | 39786 ft | 492 kts | 339° |
| 2026-05-07 07:51 | 4.34884 | 103.03902 | 39791 ft | 492 kts | 340° |
| 2026-05-07 07:52 | 4.42323 | 103.00941 | 39794 ft | 492 kts | 339° |
| 2026-05-07 07:52 | 4.47616 | 102.98833 | 39796 ft | 492 kts | 340° |
| 2026-05-07 07:53 | 4.55015 | 102.95886 | 39797 ft | 492 kts | 340° |
| 2026-05-07 07:53 | 4.61383 | 102.93348 | 39792 ft | 492 kts | 340° |
| 2026-05-07 07:54 | 4.66670 | 102.91240 | 39792 ft | 492 kts | 340° |
| 2026-05-07 07:54 | 4.73040 | 102.88702 | 39793 ft | 492 kts | 340° |
| 2026-05-07 07:55 | 4.79407 | 102.86165 | 39790 ft | 492 kts | 339° |
| 2026-05-07 07:55 | 4.85765 | 102.83632 | 39791 ft | 492 kts | 339° |
| 2026-05-07 07:56 | 4.92133 | 102.81102 | 39787 ft | 491 kts | 339° |
| 2026-05-07 07:56 | 4.98484 | 102.78576 | 39786 ft | 491 kts | 339° |
| 2026-05-07 07:57 | 5.04797 | 102.76064 | 39783 ft | 490 kts | 339° |
| 2026-05-07 07:57 | 5.11150 | 102.73537 | 39786 ft | 490 kts | 339° |
| 2026-05-07 07:58 | 5.17378 | 102.71059 | 39786 ft | 489 kts | 339° |
| 2026-05-07 07:58 | 5.23711 | 102.68540 | 39784 ft | 489 kts | 339° |
| 2026-05-07 07:59 | 5.30021 | 102.65990 | 39786 ft | 489 kts | 339° |
| 2026-05-07 07:59 | 5.36289 | 102.63448 | 39785 ft | 488 kts | 340° |
| 2026-05-07 08:00 | 5.42599 | 102.60922 | 39787 ft | 488 kts | 340° |
| 2026-05-07 08:00 | 5.48906 | 102.58405 | 39782 ft | 487 kts | 340° |
| 2026-05-07 08:01 | 5.55219 | 102.55888 | 39783 ft | 487 kts | 340° |
| 2026-05-07 08:01 | 5.61519 | 102.53378 | 39784 ft | 487 kts | 340° |
| 2026-05-07 08:02 | 5.67771 | 102.50871 | 39786 ft | 486 kts | 340° |
| 2026-05-07 08:02 | 5.74061 | 102.48353 | 39786 ft | 486 kts | 340° |
| 2026-05-07 08:03 | 5.80358 | 102.45834 | 39783 ft | 487 kts | 339° |
| 2026-05-07 08:03 | 5.86657 | 102.43311 | 39786 ft | 487 kts | 339° |
| 2026-05-07 08:04 | 5.92955 | 102.40790 | 39792 ft | 487 kts | 339° |
| 2026-05-07 08:04 | 5.99256 | 102.38270 | 39795 ft | 487 kts | 339° |
| 2026-05-07 08:05 | 6.05543 | 102.35754 | 39799 ft | 486 kts | 339° |
| 2026-05-07 08:05 | 6.11807 | 102.33245 | 39800 ft | 486 kts | 339° |
| 2026-05-07 08:06 | 6.18018 | 102.30536 | 39802 ft | 487 kts | 334° |
| 2026-05-07 08:06 | 6.24072 | 102.27482 | 39799 ft | 487 kts | 333° |
| 2026-05-07 08:07 | 6.30062 | 102.24401 | 39800 ft | 487 kts | 333° |
| 2026-05-07 08:07 | 6.36085 | 102.21291 | 39799 ft | 486 kts | 333° |
| 2026-05-07 08:08 | 6.42105 | 102.18188 | 39791 ft | 486 kts | 333° |
| 2026-05-07 08:08 | 6.48130 | 102.15089 | 39787 ft | 486 kts | 333° |
| 2026-05-07 08:09 | 6.54151 | 102.11992 | 39791 ft | 486 kts | 333° |
| 2026-05-07 08:09 | 6.60171 | 102.08895 | 39791 ft | 485 kts | 333° |
| 2026-05-07 08:10 | 6.66181 | 102.05802 | 39791 ft | 485 kts | 333° |
| 2026-05-07 08:10 | 6.72165 | 102.02722 | 39788 ft | 485 kts | 333° |
| 2026-05-07 08:11 | 6.78183 | 101.99623 | 39789 ft | 486 kts | 333° |
| 2026-05-07 08:11 | 6.84205 | 101.96522 | 39788 ft | 485 kts | 333° |
| 2026-05-07 08:12 | 6.90220 | 101.93423 | 39788 ft | 485 kts | 333° |
| 2026-05-07 08:12 | 6.96234 | 101.90323 | 39789 ft | 485 kts | 332° |
| 2026-05-07 08:13 | 7.02205 | 101.87246 | 39785 ft | 485 kts | 332° |
| 2026-05-07 08:13 | 7.08221 | 101.84144 | 39787 ft | 485 kts | 332° |
| 2026-05-07 08:14 | 7.14228 | 101.81044 | 39785 ft | 485 kts | 332° |
| 2026-05-07 08:14 | 7.20238 | 101.77944 | 39788 ft | 485 kts | 332° |
| 2026-05-07 08:15 | 7.26254 | 101.74838 | 39790 ft | 486 kts | 332° |
| 2026-05-07 08:15 | 7.32269 | 101.71733 | 39788 ft | 486 kts | 332° |
| 2026-05-07 08:16 | 7.38251 | 101.68644 | 39793 ft | 486 kts | 332° |
| 2026-05-07 08:16 | 7.44277 | 101.65531 | 39793 ft | 486 kts | 332° |
| 2026-05-07 08:17 | 7.50316 | 101.62410 | 39793 ft | 487 kts | 332° |
| 2026-05-07 08:17 | 7.56342 | 101.59294 | 39796 ft | 487 kts | 333° |
| 2026-05-07 08:18 | 7.62345 | 101.56191 | 39796 ft | 488 kts | 333° |
| 2026-05-07 08:18 | 7.68393 | 101.53070 | 39799 ft | 488 kts | 333° |
| 2026-05-07 08:19 | 7.74460 | 101.49959 | 39798 ft | 489 kts | 333° |
| 2026-05-07 08:19 | 7.80540 | 101.46842 | 39801 ft | 489 kts | 333° |
| 2026-05-07 08:20 | 7.86621 | 101.43723 | 39802 ft | 490 kts | 333° |
| 2026-05-07 08:20 | 7.92709 | 101.40599 | 39804 ft | 491 kts | 333° |
| 2026-05-07 08:21 | 7.98766 | 101.37488 | 39805 ft | 491 kts | 333° |
| 2026-05-07 08:21 | 8.04846 | 101.34365 | 39807 ft | 491 kts | 333° |
| 2026-05-07 08:22 | 8.10938 | 101.31235 | 39808 ft | 491 kts | 333° |
| 2026-05-07 08:22 | 8.17039 | 101.28099 | 39807 ft | 491 kts | 333° |
| 2026-05-07 08:23 | 8.23101 | 101.24982 | 39806 ft | 491 kts | 333° |
| 2026-05-07 08:23 | 8.29190 | 101.21851 | 39807 ft | 491 kts | 333° |
| 2026-05-07 08:24 | 8.35283 | 101.18716 | 39806 ft | 491 kts | 333° |
| 2026-05-07 08:24 | 8.41335 | 101.15602 | 39808 ft | 491 kts | 333° |
| 2026-05-07 08:25 | 8.47334 | 101.12513 | 39810 ft | 491 kts | 333° |
| 2026-05-07 08:25 | 8.53429 | 101.09373 | 39811 ft | 491 kts | 333° |
| 2026-05-07 08:26 | 8.62570 | 101.04680 | 39812 ft | 492 kts | 333° |
| 2026-05-07 08:26 | 8.68684 | 101.01552 | 39812 ft | 492 kts | 333° |
| 2026-05-07 08:27 | 8.74798 | 100.98423 | 39812 ft | 493 kts | 333° |
| 2026-05-07 08:27 | 8.80882 | 100.95308 | 39809 ft | 493 kts | 333° |
| 2026-05-07 08:28 | 8.86995 | 100.92175 | 39809 ft | 493 kts | 333° |
| 2026-05-07 08:28 | 8.93122 | 100.89036 | 39810 ft | 494 kts | 333° |
| 2026-05-07 08:29 | 8.99260 | 100.85888 | 39813 ft | 494 kts | 333° |
| 2026-05-07 08:29 | 9.05400 | 100.82740 | 39811 ft | 494 kts | 333° |
| 2026-05-07 08:30 | 9.11546 | 100.79586 | 39816 ft | 495 kts | 333° |
| 2026-05-07 08:30 | 9.17693 | 100.76431 | 39817 ft | 495 kts | 333° |
| 2026-05-07 08:31 | 9.23796 | 100.73297 | 39818 ft | 495 kts | 333° |
| 2026-05-07 08:31 | 9.29941 | 100.70140 | 39818 ft | 494 kts | 333° |
| 2026-05-07 08:32 | 9.36075 | 100.66988 | 39818 ft | 495 kts | 333° |
| 2026-05-07 08:32 | 9.42219 | 100.63830 | 39821 ft | 495 kts | 333° |
| 2026-05-07 08:33 | 9.48364 | 100.60669 | 39820 ft | 495 kts | 333° |
| 2026-05-07 08:33 | 9.54509 | 100.57513 | 39821 ft | 495 kts | 333° |
| 2026-05-07 08:34 | 9.60613 | 100.54375 | 39819 ft | 495 kts | 333° |
| 2026-05-07 08:34 | 9.66759 | 100.51209 | 39820 ft | 496 kts | 333° |
| 2026-05-07 08:35 | 9.72917 | 100.48047 | 39819 ft | 496 kts | 334° |
| 2026-05-07 08:35 | 9.79087 | 100.44922 | 39817 ft | 496 kts | 334° |
| 2026-05-07 08:36 | 9.85270 | 100.41797 | 39813 ft | 496 kts | 334° |
| 2026-05-07 08:36 | 9.91460 | 100.38661 | 39810 ft | 496 kts | 334° |
| 2026-05-07 08:37 | 9.97596 | 100.35547 | 39808 ft | 497 kts | 334° |
| 2026-05-07 08:37 | 10.03780 | 100.32418 | 39807 ft | 496 kts | 334° |
| 2026-05-07 08:38 | 10.09969 | 100.29282 | 39808 ft | 496 kts | 334° |
| 2026-05-07 08:38 | 10.16142 | 100.26142 | 39807 ft | 496 kts | 334° |
| 2026-05-07 08:39 | 10.22313 | 100.23004 | 39801 ft | 495 kts | 334° |
| 2026-05-07 08:39 | 10.28474 | 100.19874 | 39807 ft | 495 kts | 334° |
| 2026-05-07 08:40 | 10.34599 | 100.16761 | 39806 ft | 495 kts | 334° |
| 2026-05-07 08:40 | 10.40758 | 100.13630 | 39803 ft | 495 kts | 334° |
| 2026-05-07 08:41 | 10.46914 | 100.10498 | 39808 ft | 495 kts | 334° |
| 2026-05-07 08:41 | 10.52080 | 100.07869 | 39810 ft | 495 kts | 334° |
| 2026-05-07 08:42 | 10.59255 | 100.04217 | 39808 ft | 496 kts | 334° |
| 2026-05-07 08:42 | 10.64391 | 100.01601 | 39810 ft | 496 kts | 334° |
| 2026-05-07 08:43 | 10.70566 | 99.98454 | 39813 ft | 496 kts | 334° |
| 2026-05-07 08:43 | 10.77750 | 99.94792 | 39812 ft | 496 kts | 334° |
| 2026-05-07 08:44 | 10.82927 | 99.92151 | 39812 ft | 496 kts | 334° |
| 2026-05-07 08:44 | 10.89105 | 99.89000 | 39811 ft | 496 kts | 334° |
| 2026-05-07 08:45 | 10.95285 | 99.85852 | 39811 ft | 497 kts | 333° |
| 2026-05-07 08:45 | 11.01464 | 99.82694 | 39812 ft | 497 kts | 333° |
| 2026-05-07 08:46 | 11.07609 | 99.79552 | 39812 ft | 497 kts | 333° |
| 2026-05-07 08:46 | 11.13796 | 99.76390 | 39815 ft | 497 kts | 333° |
| 2026-05-07 08:47 | 11.19973 | 99.73197 | 39812 ft | 497 kts | 333° |
| 2026-05-07 08:47 | 11.26116 | 99.69949 | 39813 ft | 497 kts | 332° |
| 2026-05-07 08:48 | 11.32231 | 99.66718 | 39813 ft | 498 kts | 333° |
| 2026-05-07 08:48 | 11.38397 | 99.63471 | 39814 ft | 498 kts | 333° |
| 2026-05-07 08:49 | 11.44564 | 99.60229 | 39818 ft | 499 kts | 333° |
| 2026-05-07 08:49 | 11.50694 | 99.57004 | 39822 ft | 499 kts | 333° |
| 2026-05-07 08:50 | 11.56876 | 99.53751 | 39816 ft | 499 kts | 332° |
| 2026-05-07 08:50 | 11.63050 | 99.50500 | 39816 ft | 500 kts | 332° |
| 2026-05-07 08:51 | 11.69251 | 99.47260 | 39816 ft | 500 kts | 332° |
| 2026-05-07 08:51 | 11.75460 | 99.44019 | 39818 ft | 500 kts | 332° |
| 2026-05-07 08:52 | 11.81659 | 99.40781 | 39809 ft | 500 kts | 332° |
| 2026-05-07 08:52 | 11.87811 | 99.37566 | 39812 ft | 500 kts | 332° |
| 2026-05-07 08:53 | 11.93997 | 99.34329 | 39810 ft | 500 kts | 332° |
| 2026-05-07 08:53 | 12.00186 | 99.31090 | 39809 ft | 499 kts | 332° |
| 2026-05-07 08:54 | 12.06374 | 99.27849 | 39811 ft | 498 kts | 332° |
| 2026-05-07 08:54 | 12.12551 | 99.24613 | 39814 ft | 497 kts | 332° |
| 2026-05-07 08:55 | 12.18703 | 99.21389 | 39818 ft | 496 kts | 332° |
| 2026-05-07 08:55 | 12.24842 | 99.18170 | 39815 ft | 495 kts | 332° |
| 2026-05-07 08:56 | 12.30972 | 99.14952 | 39822 ft | 494 kts | 332° |
| 2026-05-07 08:56 | 12.37050 | 99.11761 | 39824 ft | 494 kts | 332° |
| 2026-05-07 08:57 | 12.43157 | 99.08553 | 39820 ft | 493 kts | 332° |
| 2026-05-07 08:57 | 12.49256 | 99.05348 | 39826 ft | 493 kts | 332° |
| 2026-05-07 08:58 | 12.55360 | 99.02137 | 39823 ft | 493 kts | 333° |
| 2026-05-07 08:58 | 12.61457 | 98.98929 | 39821 ft | 493 kts | 333° |
| 2026-05-07 08:59 | 12.67555 | 98.95720 | 39824 ft | 493 kts | 333° |
| 2026-05-07 08:59 | 12.73620 | 98.92526 | 39823 ft | 493 kts | 333° |
| 2026-05-07 09:00 | 12.79725 | 98.89309 | 39818 ft | 493 kts | 333° |
| 2026-05-07 09:00 | 12.85802 | 98.86105 | 39818 ft | 493 kts | 333° |
| 2026-05-07 09:01 | 12.91902 | 98.82886 | 39815 ft | 493 kts | 333° |
| 2026-05-07 09:01 | 12.98000 | 98.79667 | 39817 ft | 493 kts | 333° |
| 2026-05-07 09:02 | 13.04094 | 98.76448 | 39818 ft | 492 kts | 333° |
| 2026-05-07 09:02 | 13.10185 | 98.73230 | 39813 ft | 491 kts | 333° |
| 2026-05-07 09:03 | 13.16263 | 98.70016 | 39813 ft | 491 kts | 333° |
| 2026-05-07 09:03 | 13.22323 | 98.66810 | 39807 ft | 490 kts | 333° |
| 2026-05-07 09:04 | 13.28348 | 98.63622 | 39812 ft | 489 kts | 333° |
| 2026-05-07 09:04 | 13.34397 | 98.60418 | 39814 ft | 489 kts | 333° |
| 2026-05-07 09:05 | 13.40441 | 98.57215 | 39819 ft | 489 kts | 333° |
| 2026-05-07 09:05 | 13.46483 | 98.54011 | 39814 ft | 488 kts | 333° |
| 2026-05-07 09:06 | 13.52529 | 98.50816 | 39815 ft | 489 kts | 333° |
| 2026-05-07 09:06 | 13.58558 | 98.47667 | 39817 ft | 489 kts | 334° |
| 2026-05-07 09:07 | 13.64635 | 98.44497 | 39812 ft | 489 kts | 334° |
| 2026-05-07 09:07 | 13.70700 | 98.41326 | 39812 ft | 489 kts | 334° |
| 2026-05-07 09:08 | 13.76765 | 98.38149 | 39813 ft | 488 kts | 334° |
| 2026-05-07 09:08 | 13.82825 | 98.34974 | 39810 ft | 488 kts | 333° |
| 2026-05-07 09:09 | 13.88848 | 98.31819 | 39812 ft | 488 kts | 333° |
| 2026-05-07 09:09 | 13.94893 | 98.28648 | 39810 ft | 488 kts | 333° |
| 2026-05-07 09:10 | 14.00937 | 98.25477 | 39804 ft | 488 kts | 333° |
| 2026-05-07 09:10 | 14.06962 | 98.22314 | 39804 ft | 488 kts | 333° |
| 2026-05-07 09:11 | 14.13007 | 98.19144 | 39806 ft | 488 kts | 333° |
| 2026-05-07 09:11 | 14.19053 | 98.15972 | 39807 ft | 488 kts | 333° |
| 2026-05-07 09:12 | 14.25106 | 98.12790 | 39801 ft | 487 kts | 333° |
| 2026-05-07 09:12 | 14.31152 | 98.09611 | 39798 ft | 487 kts | 333° |
| 2026-05-07 09:13 | 14.37191 | 98.06436 | 39801 ft | 487 kts | 334° |
| 2026-05-07 09:13 | 14.43191 | 98.03279 | 39800 ft | 487 kts | 334° |
| 2026-05-07 09:14 | 14.49084 | 98.00177 | 39799 ft | 487 kts | 333° |
| 2026-05-07 09:14 | 14.55136 | 97.96991 | 39797 ft | 488 kts | 333° |
| 2026-05-07 09:15 | 14.61189 | 97.93802 | 39801 ft | 488 kts | 333° |
| 2026-05-07 09:15 | 14.67214 | 97.90624 | 39793 ft | 489 kts | 333° |
| 2026-05-07 09:16 | 14.73284 | 97.87423 | 39799 ft | 490 kts | 333° |
| 2026-05-07 09:16 | 14.79359 | 97.84200 | 39796 ft | 490 kts | 333° |
| 2026-05-07 09:17 | 14.85430 | 97.80976 | 39796 ft | 491 kts | 333° |
| 2026-05-07 09:17 | 14.91487 | 97.77762 | 39795 ft | 490 kts | 333° |
| 2026-05-07 09:18 | 14.97561 | 97.74545 | 39796 ft | 490 kts | 333° |
| 2026-05-07 09:18 | 15.03630 | 97.71320 | 39794 ft | 489 kts | 332° |
| 2026-05-07 09:19 | 15.09684 | 97.68097 | 39793 ft | 489 kts | 332° |
| 2026-05-07 09:19 | 15.15686 | 97.64902 | 39789 ft | 488 kts | 332° |
| 2026-05-07 09:20 | 15.21731 | 97.61684 | 39790 ft | 488 kts | 332° |
| 2026-05-07 09:20 | 15.27771 | 97.58467 | 39792 ft | 487 kts | 332° |
| 2026-05-07 09:21 | 15.33799 | 97.55253 | 39788 ft | 487 kts | 332° |
| 2026-05-07 09:21 | 15.39829 | 97.52037 | 39787 ft | 487 kts | 332° |
| 2026-05-07 09:22 | 15.45860 | 97.48824 | 39785 ft | 487 kts | 333° |
| 2026-05-07 09:22 | 15.51927 | 97.45684 | 39788 ft | 487 kts | 333° |
| 2026-05-07 09:23 | 15.57961 | 97.42594 | 39785 ft | 486 kts | 333° |
| 2026-05-07 09:23 | 15.64034 | 97.39472 | 39785 ft | 486 kts | 333° |
| 2026-05-07 09:24 | 15.70091 | 97.36345 | 39779 ft | 486 kts | 333° |
| 2026-05-07 09:24 | 15.76163 | 97.33207 | 39782 ft | 486 kts | 333° |
| 2026-05-07 09:25 | 15.82188 | 97.30090 | 39783 ft | 486 kts | 333° |
| 2026-05-07 09:25 | 15.88246 | 97.26955 | 39782 ft | 486 kts | 333° |
| 2026-05-07 09:26 | 15.94307 | 97.23817 | 39782 ft | 487 kts | 333° |
| 2026-05-07 09:26 | 16.00293 | 97.20714 | 39783 ft | 487 kts | 333° |
| 2026-05-07 09:27 | 16.06360 | 97.17568 | 39779 ft | 487 kts | 333° |
| 2026-05-07 09:28 | 16.15421 | 97.12866 | 39777 ft | 487 kts | 333° |
| 2026-05-07 09:28 | 16.21492 | 97.09713 | 39777 ft | 487 kts | 332° |
| 2026-05-07 09:29 | 16.27558 | 97.06559 | 39776 ft | 487 kts | 332° |
| 2026-05-07 09:29 | 16.33625 | 97.03402 | 39778 ft | 487 kts | 332° |
| 2026-05-07 09:30 | 16.39660 | 97.00261 | 39778 ft | 487 kts | 332° |
| 2026-05-07 09:30 | 16.45721 | 96.97104 | 39774 ft | 487 kts | 332° |
| 2026-05-07 09:31 | 16.51791 | 96.93940 | 39776 ft | 487 kts | 332° |
| 2026-05-07 09:31 | 16.57854 | 96.90776 | 39773 ft | 487 kts | 332° |
| 2026-05-07 09:32 | 16.62894 | 96.88146 | 39776 ft | 487 kts | 332° |
| 2026-05-07 09:32 | 16.68952 | 96.84983 | 39774 ft | 487 kts | 332° |
| 2026-05-07 09:33 | 16.75995 | 96.81302 | 39768 ft | 486 kts | 332° |
| 2026-05-07 09:33 | 16.81026 | 96.78670 | 39769 ft | 486 kts | 332° |
| 2026-05-07 09:34 | 16.87073 | 96.75505 | 39766 ft | 486 kts | 332° |
| 2026-05-07 09:34 | 16.93131 | 96.72331 | 39763 ft | 486 kts | 332° |
| 2026-05-07 09:35 | 16.99169 | 96.69166 | 39764 ft | 486 kts | 332° |
| 2026-05-07 09:35 | 17.05213 | 96.65995 | 39758 ft | 486 kts | 332° |
| 2026-05-07 09:36 | 17.11262 | 96.62820 | 39756 ft | 486 kts | 332° |
| 2026-05-07 09:36 | 17.17271 | 96.59664 | 39749 ft | 486 kts | 332° |
| 2026-05-07 09:37 | 17.23312 | 96.56488 | 39748 ft | 486 kts | 332° |
| 2026-05-07 09:37 | 17.29278 | 96.53165 | 39743 ft | 484 kts | 325° |
| 2026-05-07 09:38 | 17.34287 | 96.48532 | 39742 ft | 480 kts | 308° |
| 2026-05-07 09:38 | 17.38432 | 96.43042 | 39739 ft | 480 kts | 306° |
| 2026-05-07 09:39 | 17.42428 | 96.37440 | 39741 ft | 480 kts | 305° |
| 2026-05-07 09:39 | 17.46423 | 96.31832 | 39738 ft | 480 kts | 306° |
| 2026-05-07 09:40 | 17.50435 | 96.26242 | 39740 ft | 480 kts | 306° |
| 2026-05-07 09:40 | 17.54429 | 96.20697 | 39734 ft | 479 kts | 306° |
| 2026-05-07 09:41 | 17.58449 | 96.15111 | 39738 ft | 479 kts | 306° |
| 2026-05-07 09:41 | 17.62464 | 96.09526 | 39738 ft | 479 kts | 306° |
| 2026-05-07 09:42 | 17.66482 | 96.03931 | 39734 ft | 479 kts | 306° |
| 2026-05-07 09:42 | 17.70466 | 95.98380 | 39738 ft | 479 kts | 305° |
| 2026-05-07 09:43 | 17.74476 | 95.92785 | 39735 ft | 479 kts | 305° |
| 2026-05-07 09:43 | 17.78480 | 95.87194 | 39733 ft | 479 kts | 305° |
| 2026-05-07 09:44 | 17.82486 | 95.81598 | 39735 ft | 479 kts | 305° |
| 2026-05-07 09:44 | 17.86485 | 95.76006 | 39735 ft | 479 kts | 305° |
| 2026-05-07 09:45 | 17.90488 | 95.70405 | 39735 ft | 479 kts | 305° |
| 2026-05-07 09:45 | 17.94454 | 95.64849 | 39731 ft | 478 kts | 305° |
| 2026-05-07 09:46 | 17.98449 | 95.59248 | 39727 ft | 478 kts | 305° |
| 2026-05-07 09:46 | 18.02440 | 95.53648 | 39730 ft | 478 kts | 305° |
| 2026-05-07 09:47 | 18.06409 | 95.48075 | 39729 ft | 478 kts | 305° |
| 2026-05-07 09:47 | 18.10391 | 95.42477 | 39732 ft | 478 kts | 305° |
| 2026-05-07 09:48 | 18.14372 | 95.36877 | 39730 ft | 477 kts | 305° |
| 2026-05-07 09:48 | 18.18346 | 95.31280 | 39740 ft | 477 kts | 304° |
| 2026-05-07 09:49 | 18.22293 | 95.25718 | 39743 ft | 477 kts | 304° |
| 2026-05-07 09:49 | 18.26282 | 95.20094 | 39750 ft | 476 kts | 304° |
| 2026-05-07 09:50 | 18.30217 | 95.14540 | 39756 ft | 476 kts | 304° |
| 2026-05-07 09:50 | 18.34073 | 95.08859 | 39768 ft | 475 kts | 302° |
| 2026-05-07 09:51 | 18.37798 | 95.03114 | 39772 ft | 474 kts | 302° |
| 2026-05-07 09:51 | 18.41503 | 94.97417 | 39778 ft | 474 kts | 302° |
| 2026-05-07 09:52 | 18.45254 | 94.91698 | 39787 ft | 474 kts | 303° |
| 2026-05-07 09:52 | 18.49005 | 94.85994 | 39794 ft | 473 kts | 303° |
| 2026-05-07 09:53 | 18.52758 | 94.80284 | 39801 ft | 473 kts | 303° |
| 2026-05-07 09:53 | 18.56476 | 94.74619 | 39803 ft | 473 kts | 302° |
| 2026-05-07 09:54 | 18.60249 | 94.68932 | 39806 ft | 473 kts | 303° |
| 2026-05-07 09:54 | 18.64127 | 94.63328 | 39798 ft | 473 kts | 304° |
| 2026-05-07 09:55 | 18.68014 | 94.57734 | 39802 ft | 472 kts | 304° |
| 2026-05-07 09:55 | 18.71881 | 94.52131 | 39815 ft | 472 kts | 304° |
| 2026-05-07 09:56 | 18.75708 | 94.46560 | 39806 ft | 471 kts | 303° |
| 2026-05-07 09:56 | 18.79561 | 94.40941 | 39802 ft | 471 kts | 303° |
| 2026-05-07 09:57 | 18.83404 | 94.35334 | 39800 ft | 471 kts | 303° |
| 2026-05-07 09:57 | 18.87210 | 94.29776 | 39795 ft | 470 kts | 303° |
| 2026-05-07 09:58 | 18.91037 | 94.24185 | 39789 ft | 470 kts | 303° |
| 2026-05-07 09:58 | 18.94861 | 94.18593 | 39789 ft | 469 kts | 303° |
| 2026-05-07 09:59 | 18.98676 | 94.13006 | 39786 ft | 469 kts | 303° |
| 2026-05-07 09:59 | 19.02497 | 94.07405 | 39788 ft | 469 kts | 303° |
| 2026-05-07 10:00 | 19.06308 | 94.01816 | 39788 ft | 468 kts | 303° |
| 2026-05-07 10:00 | 19.10121 | 93.96221 | 39791 ft | 468 kts | 303° |
| 2026-05-07 10:01 | 19.13909 | 93.90654 | 39788 ft | 468 kts | 303° |
| 2026-05-07 10:01 | 19.17712 | 93.85062 | 39793 ft | 468 kts | 303° |
| 2026-05-07 10:02 | 19.21493 | 93.79497 | 39793 ft | 468 kts | 303° |
| 2026-05-07 10:02 | 19.25287 | 93.73907 | 39793 ft | 467 kts | 303° |
| 2026-05-07 10:03 | 19.29081 | 93.68312 | 39795 ft | 467 kts | 302° |
| 2026-05-07 10:03 | 19.32875 | 93.62712 | 39803 ft | 467 kts | 302° |
| 2026-05-07 10:04 | 19.36661 | 93.57119 | 39804 ft | 467 kts | 302° |
| 2026-05-07 10:04 | 19.40446 | 93.51522 | 39801 ft | 467 kts | 302° |
| 2026-05-07 10:05 | 19.44208 | 93.45954 | 39804 ft | 467 kts | 302° |
| 2026-05-07 10:05 | 19.47985 | 93.40359 | 39808 ft | 467 kts | 302° |
| 2026-05-07 10:06 | 19.51760 | 93.34762 | 39803 ft | 466 kts | 302° |
| 2026-05-07 10:06 | 19.55537 | 93.29155 | 39805 ft | 467 kts | 302° |
| 2026-05-07 10:07 | 19.59288 | 93.23584 | 39808 ft | 467 kts | 302° |
| 2026-05-07 10:07 | 19.63063 | 93.17971 | 39813 ft | 467 kts | 302° |
| 2026-05-07 10:08 | 19.66833 | 93.12359 | 39809 ft | 467 kts | 302° |
| 2026-05-07 10:08 | 19.70610 | 93.06734 | 39812 ft | 467 kts | 302° |
| 2026-05-07 10:09 | 19.74382 | 93.01109 | 39809 ft | 467 kts | 302° |
| 2026-05-07 10:09 | 19.78153 | 92.95481 | 39811 ft | 468 kts | 302° |
| 2026-05-07 10:10 | 19.81926 | 92.89846 | 39813 ft | 468 kts | 302° |
| 2026-05-07 10:10 | 19.85671 | 92.84246 | 39811 ft | 468 kts | 302° |
| 2026-05-07 10:11 | 19.89441 | 92.78603 | 39812 ft | 468 kts | 302° |
| 2026-05-07 10:11 | 19.93214 | 92.72950 | 39816 ft | 468 kts | 302° |
| 2026-05-07 10:12 | 19.96985 | 92.67296 | 39818 ft | 469 kts | 302° |
| 2026-05-07 10:12 | 20.00752 | 92.61641 | 39817 ft | 469 kts | 302° |
| 2026-05-07 10:13 | 20.04521 | 92.55979 | 39818 ft | 469 kts | 302° |
| 2026-05-07 10:13 | 20.08287 | 92.50315 | 39820 ft | 469 kts | 302° |
| 2026-05-07 10:14 | 20.12030 | 92.44682 | 39822 ft | 469 kts | 302° |
| 2026-05-07 10:14 | 20.15795 | 92.39009 | 39821 ft | 469 kts | 302° |
| 2026-05-07 10:15 | 20.19562 | 92.33328 | 39825 ft | 469 kts | 302° |
| 2026-05-07 10:15 | 20.23322 | 92.27652 | 39824 ft | 469 kts | 302° |
| 2026-05-07 10:16 | 20.27054 | 92.22013 | 39826 ft | 469 kts | 302° |
| 2026-05-07 10:16 | 20.30809 | 92.16334 | 39827 ft | 468 kts | 302° |
| 2026-05-07 10:17 | 20.34557 | 92.10659 | 39833 ft | 468 kts | 302° |
| 2026-05-07 10:17 | 20.38310 | 92.04972 | 39828 ft | 468 kts | 302° |
| 2026-05-07 10:18 | 20.42052 | 91.99296 | 39830 ft | 468 kts | 302° |
| 2026-05-07 10:18 | 20.45767 | 91.93597 | 39829 ft | 467 kts | 301° |
| 2026-05-07 10:19 | 20.49429 | 91.87916 | 39835 ft | 467 kts | 301° |
| 2026-05-07 10:19 | 20.53113 | 91.82202 | 39835 ft | 467 kts | 301° |
| 2026-05-07 10:20 | 20.56177 | 91.77456 | 39834 ft | 467 kts | 301° |
| 2026-05-07 10:20 | 20.60482 | 91.70786 | 39834 ft | 467 kts | 301° |
| 2026-05-07 10:21 | 20.63671 | 91.65839 | 39834 ft | 466 kts | 301° |
| 2026-05-07 10:21 | 20.66724 | 91.61092 | 39832 ft | 466 kts | 301° |
| 2026-05-07 10:22 | 20.70382 | 91.55414 | 39827 ft | 466 kts | 301° |
| 2026-05-07 10:22 | 20.74060 | 91.49700 | 39830 ft | 466 kts | 301° |
| 2026-05-07 10:23 | 20.77733 | 91.43984 | 39831 ft | 466 kts | 301° |
| 2026-05-07 10:23 | 20.81401 | 91.38268 | 39850 ft | 466 kts | 301° |
| 2026-05-07 10:24 | 20.85068 | 91.32548 | 39829 ft | 466 kts | 301° |
| 2026-05-07 10:24 | 20.88730 | 91.26830 | 39835 ft | 466 kts | 301° |
| 2026-05-07 10:25 | 20.92365 | 91.21149 | 39835 ft | 465 kts | 301° |
| 2026-05-07 10:25 | 20.96018 | 91.15434 | 39834 ft | 465 kts | 301° |
| 2026-05-07 10:26 | 20.99667 | 91.09718 | 39837 ft | 465 kts | 301° |
| 2026-05-07 10:26 | 21.03314 | 91.04001 | 39838 ft | 465 kts | 301° |
| 2026-05-07 10:27 | 21.06957 | 90.98285 | 39836 ft | 465 kts | 300° |
| 2026-05-07 10:27 | 21.10599 | 90.92563 | 39835 ft | 464 kts | 300° |
| 2026-05-07 10:28 | 21.14238 | 90.86840 | 39835 ft | 464 kts | 300° |
| 2026-05-07 10:28 | 21.17869 | 90.81124 | 39835 ft | 464 kts | 300° |
| 2026-05-07 10:29 | 21.21501 | 90.75401 | 39836 ft | 464 kts | 300° |
| 2026-05-07 10:29 | 21.25109 | 90.69710 | 39839 ft | 464 kts | 300° |
| 2026-05-07 10:30 | 21.30540 | 90.61132 | 39837 ft | 463 kts | 300° |
| 2026-05-07 10:30 | 21.34158 | 90.55411 | 39834 ft | 463 kts | 300° |
| 2026-05-07 10:31 | 21.37780 | 90.49684 | 39839 ft | 463 kts | 300° |
| 2026-05-07 10:31 | 21.41396 | 90.43959 | 39837 ft | 463 kts | 300° |
| 2026-05-07 10:32 | 21.44983 | 90.38276 | 39836 ft | 462 kts | 300° |
| 2026-05-07 10:32 | 21.48595 | 90.32547 | 39835 ft | 462 kts | 300° |
| 2026-05-07 10:33 | 21.52198 | 90.26826 | 39834 ft | 462 kts | 300° |
| 2026-05-07 10:33 | 21.55797 | 90.21105 | 39837 ft | 462 kts | 300° |
| 2026-05-07 10:34 | 21.59392 | 90.15387 | 39833 ft | 462 kts | 300° |
| 2026-05-07 10:34 | 21.62961 | 90.09702 | 39833 ft | 461 kts | 300° |
| 2026-05-07 10:35 | 21.66549 | 90.03982 | 39833 ft | 461 kts | 300° |
| 2026-05-07 10:35 | 21.70135 | 89.98261 | 39827 ft | 461 kts | 299° |
| 2026-05-07 10:36 | 21.73716 | 89.92540 | 39831 ft | 460 kts | 299° |
| 2026-05-07 10:36 | 21.77287 | 89.86827 | 39833 ft | 460 kts | 299° |
| 2026-05-07 10:37 | 21.80852 | 89.81118 | 39839 ft | 460 kts | 300° |
| 2026-05-07 10:37 | 21.84405 | 89.75419 | 39832 ft | 462 kts | 300° |
| 2026-05-07 10:38 | 21.87989 | 89.69671 | 39829 ft | 462 kts | 300° |
| 2026-05-07 10:38 | 21.91567 | 89.63927 | 39827 ft | 462 kts | 300° |
| 2026-05-07 10:39 | 21.95137 | 89.58188 | 39828 ft | 461 kts | 300° |
| 2026-05-07 10:39 | 21.98708 | 89.52440 | 39827 ft | 461 kts | 300° |
| 2026-05-07 10:40 | 22.02276 | 89.46690 | 39827 ft | 461 kts | 300° |
| 2026-05-07 10:40 | 22.05837 | 89.40948 | 39829 ft | 461 kts | 300° |
| 2026-05-07 10:41 | 22.09394 | 89.35204 | 39824 ft | 460 kts | 300° |
| 2026-05-07 10:41 | 22.12947 | 89.29461 | 39823 ft | 460 kts | 300° |
| 2026-05-07 10:42 | 22.16497 | 89.23717 | 39825 ft | 460 kts | 300° |
| 2026-05-07 10:42 | 22.20022 | 89.18007 | 39823 ft | 460 kts | 300° |
| 2026-05-07 10:43 | 22.23568 | 89.12257 | 39821 ft | 460 kts | 300° |
| 2026-05-07 10:43 | 22.27110 | 89.06507 | 39823 ft | 460 kts | 300° |
| 2026-05-07 10:44 | 22.30649 | 89.00757 | 39823 ft | 460 kts | 299° |
| 2026-05-07 10:44 | 22.34328 | 88.95093 | 39822 ft | 461 kts | 302° |
| 2026-05-07 10:45 | 22.38109 | 88.89488 | 39818 ft | 461 kts | 302° |
| 2026-05-07 10:45 | 22.41877 | 88.83866 | 39819 ft | 461 kts | 301° |
| 2026-05-07 10:46 | 22.45595 | 88.78263 | 39818 ft | 461 kts | 301° |
| 2026-05-07 10:46 | 22.49325 | 88.72619 | 39820 ft | 461 kts | 301° |
| 2026-05-07 10:47 | 22.53051 | 88.66973 | 39822 ft | 461 kts | 301° |
| 2026-05-07 10:47 | 22.56775 | 88.61326 | 39826 ft | 461 kts | 301° |
| 2026-05-07 10:48 | 22.60501 | 88.55674 | 39825 ft | 461 kts | 301° |
| 2026-05-07 10:48 | 22.64224 | 88.50019 | 39832 ft | 461 kts | 301° |
| 2026-05-07 10:49 | 22.68376 | 88.44689 | 39829 ft | 468 kts | 313° |
| 2026-05-07 10:49 | 22.73637 | 88.40429 | 39826 ft | 474 kts | 321° |
| 2026-05-07 10:50 | 22.79112 | 88.36498 | 39828 ft | 475 kts | 322° |
| 2026-05-07 10:50 | 22.84655 | 88.32572 | 39821 ft | 475 kts | 321° |
| 2026-05-07 10:51 | 22.90181 | 88.28626 | 39819 ft | 475 kts | 321° |
| 2026-05-07 10:51 | 22.95686 | 88.24667 | 39815 ft | 475 kts | 321° |
| 2026-05-07 10:52 | 23.01195 | 88.20696 | 39814 ft | 474 kts | 321° |
| 2026-05-07 10:52 | 23.06691 | 88.16730 | 39818 ft | 474 kts | 321° |
| 2026-05-07 10:53 | 23.12151 | 88.12788 | 39816 ft | 474 kts | 321° |
| 2026-05-07 10:53 | 23.17650 | 88.08813 | 39820 ft | 474 kts | 321° |
| 2026-05-07 10:54 | 23.23142 | 88.04841 | 39818 ft | 473 kts | 321° |
| 2026-05-07 10:54 | 23.28594 | 88.00893 | 39820 ft | 473 kts | 321° |
| 2026-05-07 10:55 | 23.34074 | 87.96921 | 39818 ft | 473 kts | 321° |
| 2026-05-07 10:55 | 23.39553 | 87.92945 | 39820 ft | 473 kts | 321° |
| 2026-05-07 10:56 | 23.45027 | 87.88969 | 39822 ft | 473 kts | 321° |
| 2026-05-07 10:56 | 23.50502 | 87.84988 | 39827 ft | 473 kts | 321° |
| 2026-05-07 10:57 | 23.55983 | 87.80999 | 39828 ft | 473 kts | 321° |
| 2026-05-07 10:57 | 23.61456 | 87.77012 | 39821 ft | 473 kts | 321° |
| 2026-05-07 10:58 | 23.66891 | 87.73048 | 39825 ft | 473 kts | 321° |
| 2026-05-07 10:58 | 23.72366 | 87.69051 | 39823 ft | 472 kts | 320° |
| 2026-05-07 10:59 | 23.77837 | 87.65053 | 39826 ft | 472 kts | 320° |
| 2026-05-07 10:59 | 23.83298 | 87.61059 | 39822 ft | 472 kts | 320° |
| 2026-05-07 11:00 | 23.88722 | 87.57087 | 39830 ft | 472 kts | 320° |
| 2026-05-07 11:00 | 23.94190 | 87.53078 | 39826 ft | 472 kts | 320° |
| 2026-05-07 11:01 | 23.99651 | 87.49072 | 39825 ft | 472 kts | 320° |
| 2026-05-07 11:01 | 24.05082 | 87.45084 | 39833 ft | 472 kts | 320° |
| 2026-05-07 11:02 | 24.10535 | 87.41072 | 39840 ft | 472 kts | 320° |
| 2026-05-07 11:02 | 24.15986 | 87.37059 | 39832 ft | 472 kts | 320° |
| 2026-05-07 11:03 | 24.21424 | 87.33021 | 39838 ft | 471 kts | 319° |
| 2026-05-07 11:03 | 24.26724 | 87.28892 | 39838 ft | 470 kts | 318° |
| 2026-05-07 11:04 | 24.32039 | 87.24713 | 39841 ft | 470 kts | 319° |
| 2026-05-07 11:04 | 24.37361 | 87.20554 | 39842 ft | 469 kts | 319° |
| 2026-05-07 11:05 | 24.42689 | 87.16404 | 39841 ft | 469 kts | 319° |
| 2026-05-07 11:05 | 24.48011 | 87.12259 | 39841 ft | 469 kts | 319° |
| 2026-05-07 11:06 | 24.53336 | 87.08105 | 39842 ft | 469 kts | 318° |
| 2026-05-07 11:06 | 24.57758 | 87.04653 | 39848 ft | 469 kts | 318° |
| 2026-05-07 11:07 | 24.63972 | 86.99794 | 39851 ft | 469 kts | 318° |
| 2026-05-07 11:07 | 24.69265 | 86.95652 | 39847 ft | 469 kts | 318° |
| 2026-05-07 11:08 | 24.73681 | 86.92192 | 39847 ft | 469 kts | 318° |
| 2026-05-07 11:08 | 24.79900 | 86.87316 | 39839 ft | 469 kts | 318° |
| 2026-05-07 11:09 | 24.85182 | 86.83168 | 39835 ft | 469 kts | 318° |
| 2026-05-07 11:09 | 24.89608 | 86.79690 | 39837 ft | 469 kts | 318° |
| 2026-05-07 11:10 | 24.94925 | 86.75507 | 39841 ft | 469 kts | 318° |
| 2026-05-07 11:10 | 25.00238 | 86.71323 | 39838 ft | 469 kts | 318° |
| 2026-05-07 11:11 | 25.05541 | 86.67142 | 39839 ft | 469 kts | 317° |
| 2026-05-07 11:11 | 25.10841 | 86.62959 | 39839 ft | 468 kts | 317° |
| 2026-05-07 11:12 | 25.16105 | 86.58799 | 39837 ft | 469 kts | 317° |
| 2026-05-07 11:12 | 25.21409 | 86.54604 | 39835 ft | 468 kts | 317° |
| 2026-05-07 11:13 | 25.26702 | 86.50413 | 39832 ft | 468 kts | 317° |
| 2026-05-07 11:13 | 25.31996 | 86.46217 | 39826 ft | 468 kts | 317° |
| 2026-05-07 11:14 | 25.37300 | 86.42014 | 39831 ft | 468 kts | 317° |
| 2026-05-07 11:14 | 25.42605 | 86.37823 | 39828 ft | 468 kts | 317° |
| 2026-05-07 11:15 | 25.47910 | 86.33629 | 39829 ft | 468 kts | 317° |
| 2026-05-07 11:15 | 25.53177 | 86.29459 | 39828 ft | 469 kts | 317° |
| 2026-05-07 11:16 | 25.58484 | 86.25253 | 39828 ft | 469 kts | 317° |
| 2026-05-07 11:16 | 25.63785 | 86.21035 | 39826 ft | 468 kts | 317° |
| 2026-05-07 11:17 | 25.69060 | 86.16800 | 39827 ft | 468 kts | 317° |
| 2026-05-07 11:17 | 25.74346 | 86.12554 | 39825 ft | 468 kts | 317° |
| 2026-05-07 11:18 | 25.79602 | 86.08334 | 39828 ft | 468 kts | 317° |
| 2026-05-07 11:18 | 25.84891 | 86.04085 | 39758 ft | 469 kts | 317° |
| 2026-05-07 11:19 | 25.87523 | 86.01969 | 39545 ft | 468 kts | 317° |
| 2026-05-07 11:19 | 25.90170 | 85.99839 | 39325 ft | 469 kts | 317° |
| 2026-05-07 11:19 | 25.92814 | 85.97711 | 39097 ft | 469 kts | 317° |
| 2026-05-07 11:19 | 25.95462 | 85.95578 | 38879 ft | 470 kts | 317° |
| 2026-05-07 11:20 | 25.98109 | 85.93444 | 38663 ft | 470 kts | 317° |
| 2026-05-07 11:20 | 26.00765 | 85.91303 | 38437 ft | 471 kts | 316° |
| 2026-05-07 11:20 | 26.03382 | 85.89191 | 38178 ft | 472 kts | 316° |
| 2026-05-07 11:20 | 26.06043 | 85.87044 | 37918 ft | 472 kts | 316° |
| 2026-05-07 11:21 | 26.08708 | 85.84890 | 37663 ft | 473 kts | 316° |
| 2026-05-07 11:21 | 26.11384 | 85.82727 | 37413 ft | 474 kts | 316° |
| 2026-05-07 11:21 | 26.14047 | 85.80575 | 36862 ft | 471 kts | 316° |
| 2026-05-07 11:21 | 26.16702 | 85.78430 | 36210 ft | 471 kts | 316° |
| 2026-05-07 11:22 | 26.19350 | 85.76286 | 35500 ft | 472 kts | 316° |
| 2026-05-07 11:22 | 26.22012 | 85.74128 | 34753 ft | 474 kts | 316° |
| 2026-05-07 11:22 | 26.24662 | 85.71976 | 33950 ft | 478 kts | 316° |
| 2026-05-07 11:22 | 26.27363 | 85.69779 | 33030 ft | 482 kts | 317° |
| 2026-05-07 11:23 | 26.30079 | 85.67570 | 32158 ft | 484 kts | 317° |
| 2026-05-07 11:23 | 26.32807 | 85.65353 | 31273 ft | 486 kts | 318° |
| 2026-05-07 11:23 | 26.35562 | 85.63121 | 30318 ft | 490 kts | 319° |
| 2026-05-07 11:23 | 26.38329 | 85.60884 | 29537 ft | 489 kts | 319° |
| 2026-05-07 11:24 | 26.41080 | 85.58668 | 28882 ft | 483 kts | 319° |
| 2026-05-07 11:24 | 26.43791 | 85.56485 | 28244 ft | 478 kts | 319° |
| 2026-05-07 11:24 | 26.45295 | 85.55272 | 27887 ft | 475 kts | 319° |
| 2026-05-07 11:24 | 26.45693 | 85.54951 | 27805 ft | 475 kts | 319° |
| 2026-05-07 11:25 | 26.48118 | 85.52992 | 27224 ft | 471 kts | 319° |
| 2026-05-07 11:25 | 26.50674 | 85.50922 | 26608 ft | 467 kts | 319° |
| 2026-05-07 11:25 | 26.53295 | 85.48797 | 25991 ft | 463 kts | 319° |
| 2026-05-07 11:25 | 26.55895 | 85.46686 | 25393 ft | 459 kts | 319° |
| 2026-05-07 11:26 | 26.58479 | 85.44586 | 25024 ft | 459 kts | 319° |
| 2026-05-07 11:26 | 26.61077 | 85.42472 | 24900 ft | 461 kts | 319° |
| 2026-05-07 11:26 | 26.63672 | 85.40360 | 24902 ft | 461 kts | 319° |
| 2026-05-07 11:26 | 26.66231 | 85.38278 | 24903 ft | 460 kts | 319° |
| 2026-05-07 11:27 | 26.68826 | 85.36167 | 24911 ft | 460 kts | 319° |
| 2026-05-07 11:27 | 26.71417 | 85.34058 | 24911 ft | 460 kts | 319° |
| 2026-05-07 11:27 | 26.74002 | 85.31952 | 24915 ft | 460 kts | 320° |
| 2026-05-07 11:27 | 26.76584 | 85.29856 | 24694 ft | 454 kts | 320° |
| 2026-05-07 11:28 | 26.79161 | 85.27803 | 23904 ft | 455 kts | 320° |
| 2026-05-07 11:28 | 26.81751 | 85.25744 | 22784 ft | 450 kts | 321° |
| 2026-05-07 11:28 | 26.84251 | 85.23757 | 21106 ft | 443 kts | 321° |
| 2026-05-07 11:28 | 26.86635 | 85.21855 | 19453 ft | 440 kts | 322° |
| 2026-05-07 11:29 | 26.89108 | 85.19880 | 17860 ft | 433 kts | 322° |
| 2026-05-07 11:29 | 26.91502 | 85.17969 | 16273 ft | 424 kts | 322° |
| 2026-05-07 11:29 | 26.93848 | 85.16096 | 15513 ft | 399 kts | 322° |
| 2026-05-07 11:29 | 26.95971 | 85.14403 | 15408 ft | 360 kts | 322° |
| 2026-05-07 11:30 | 26.97928 | 85.12841 | 15333 ft | 337 kts | 322° |
| 2026-05-07 11:30 | 26.99826 | 85.11319 | 15216 ft | 336 kts | 322° |
| 2026-05-07 11:30 | 27.01729 | 85.09790 | 15089 ft | 337 kts | 322° |
| 2026-05-07 11:30 | 27.03702 | 85.08407 | 14861 ft | 332 kts | 333° |
| 2026-05-07 11:31 | 27.05812 | 85.07778 | 14581 ft | 332 kts | 354° |
| 2026-05-07 11:31 | 27.08104 | 85.08079 | 14131 ft | 336 kts | 15° |
| 2026-05-07 11:31 | 27.10261 | 85.08985 | 13681 ft | 337 kts | 20° |
| 2026-05-07 11:31 | 27.12429 | 85.09997 | 13243 ft | 335 kts | 20° |
| 2026-05-07 11:32 | 27.16711 | 85.11961 | 12455 ft | 329 kts | 20° |
| 2026-05-07 11:32 | 27.18827 | 85.12919 | 12074 ft | 326 kts | 20° |
| 2026-05-07 11:32 | 27.20942 | 85.13872 | 11899 ft | 330 kts | 20° |
| 2026-05-07 11:33 | 27.23082 | 85.14836 | 11881 ft | 332 kts | 20° |
| 2026-05-07 11:33 | 27.25180 | 85.15781 | 11890 ft | 317 kts | 20° |
| 2026-05-07 11:33 | 27.27194 | 85.16691 | 11797 ft | 307 kts | 20° |
| 2026-05-07 11:33 | 27.29160 | 85.17574 | 11378 ft | 309 kts | 20° |
| 2026-05-07 11:34 | 27.31166 | 85.18467 | 11018 ft | 307 kts | 19° |
| 2026-05-07 11:34 | 27.33169 | 85.19234 | 10925 ft | 301 kts | 16° |
| 2026-05-07 11:34 | 27.35121 | 85.19935 | 10918 ft | 287 kts | 16° |
| 2026-05-07 11:34 | 27.35763 | 85.20167 | 10915 ft | 281 kts | 16° |
| 2026-05-07 11:35 | 27.37160 | 85.20676 | 10929 ft | 268 kts | 16° |
| 2026-05-07 11:35 | 27.38889 | 85.21312 | 10929 ft | 254 kts | 16° |
| 2026-05-07 11:35 | 27.40502 | 85.21911 | 10960 ft | 234 kts | 16° |
| 2026-05-07 11:35 | 27.41976 | 85.22463 | 10977 ft | 213 kts | 16° |
| 2026-05-07 11:36 | 27.43316 | 85.22965 | 10975 ft | 194 kts | 16° |
| 2026-05-07 11:36 | 27.44610 | 85.23448 | 10974 ft | 204 kts | 16° |
| 2026-05-07 11:36 | 27.45967 | 85.23954 | 10970 ft | 206 kts | 16° |
| 2026-05-07 11:36 | 27.47347 | 85.24437 | 10966 ft | 206 kts | 11° |
| 2026-05-07 11:37 | 27.48763 | 85.24389 | 10990 ft | 202 kts | 346° |
| 2026-05-07 11:37 | 27.50100 | 85.24016 | 10847 ft | 195 kts | 343° |
| 2026-05-07 11:37 | 27.51451 | 85.23723 | 10567 ft | 200 kts | 352° |
| 2026-05-07 11:37 | 27.52854 | 85.23726 | 10503 ft | 204 kts | 4° |
| 2026-05-07 11:38 | 27.54244 | 85.24077 | 10500 ft | 205 kts | 17° |
| 2026-05-07 11:38 | 27.55538 | 85.24768 | 10497 ft | 206 kts | 30° |
| 2026-05-07 11:38 | 27.56691 | 85.25716 | 10318 ft | 206 kts | 38° |
| 2026-05-07 11:38 | 27.57791 | 85.26765 | 10033 ft | 206 kts | 40° |
| 2026-05-07 11:39 | 27.58770 | 85.27901 | 9779 ft | 200 kts | 49° |
| 2026-05-07 11:39 | 27.59587 | 85.29140 | 9475 ft | 197 kts | 53° |
| 2026-05-07 11:39 | 27.60393 | 85.30378 | 9122 ft | 194 kts | 51° |
| 2026-05-07 11:39 | 27.61298 | 85.31507 | 8675 ft | 195 kts | 43° |
| 2026-05-07 11:40 | 27.62387 | 85.32475 | 8013 ft | 203 kts | 32° |
| 2026-05-07 11:40 | 27.63621 | 85.33205 | 7622 ft | 194 kts | 22° |
| 2026-05-07 11:40 | 27.64809 | 85.33749 | 7528 ft | 176 kts | 21° |
| 2026-05-07 11:40 | 27.65981 | 85.34266 | 7526 ft | 194 kts | 20° |
| 2026-05-07 11:41 | 27.67264 | 85.34836 | 7313 ft | 199 kts | 21° |
| 2026-05-07 11:41 | 27.68547 | 85.35413 | 6988 ft | 202 kts | 21° |
| 2026-05-07 11:41 | 27.69863 | 85.36012 | 6684 ft | 202 kts | 21° |
| 2026-05-07 11:41 | 27.71157 | 85.36631 | 6535 ft | 202 kts | 26° |
| 2026-05-07 11:42 | 27.72146 | 85.37742 | 6518 ft | 204 kts | 62° |
| 2026-05-07 11:42 | 27.72388 | 85.39291 | 6515 ft | 201 kts | 97° |
| 2026-05-07 11:42 | 27.71802 | 85.40655 | 6520 ft | 194 kts | 134° |
| 2026-05-07 11:42 | 27.70697 | 85.41497 | 6513 ft | 193 kts | 161° |
| 2026-05-07 11:43 | 27.69354 | 85.41570 | 6346 ft | 198 kts | 191° |
| 2026-05-07 11:43 | 27.68025 | 85.41135 | 6048 ft | 196 kts | 199° |
| 2026-05-07 11:43 | 27.66796 | 85.40605 | 5820 ft | 188 kts | 206° |
| 2026-05-07 11:43 | 27.65656 | 85.39926 | 5504 ft | 185 kts | 210° |
| 2026-05-07 11:44 | 27.64534 | 85.39216 | 5301 ft | 181 kts | 210° |
| 2026-05-07 11:44 | 27.63572 | 85.38300 | 5489 ft | 186 kts | 237° |
| 2026-05-07 11:44 | 27.63268 | 85.36933 | 5656 ft | 180 kts | 276° |
| 2026-05-07 11:44 | 27.63546 | 85.35567 | 5953 ft | 172 kts | 288° |
| 2026-05-07 11:45 | 27.63906 | 85.34369 | 6020 ft | 152 kts | 290° |
| 2026-05-07 11:45 | 27.64439 | 85.33390 | 6026 ft | 148 kts | 322° |
| 2026-05-07 11:45 | 27.65413 | 85.33100 | 6030 ft | 148 kts | 5° |
| 2026-05-07 11:45 | 27.66475 | 85.33105 | 5834 ft | 164 kts | 347° |
| 2026-05-07 11:46 | 27.67465 | 85.32325 | 5803 ft | 185 kts | 306° |
| 2026-05-07 11:46 | 27.67826 | 85.30935 | 5810 ft | 190 kts | 268° |
| 2026-05-07 11:46 | 27.67353 | 85.29566 | 5819 ft | 191 kts | 231° |
| 2026-05-07 11:46 | 27.66252 | 85.28797 | 5826 ft | 191 kts | 194° |
| 2026-05-07 11:47 | 27.64976 | 85.28632 | 5834 ft | 175 kts | 182° |
| 2026-05-07 11:47 | 27.63915 | 85.29039 | 5708 ft | 158 kts | 134° |
| 2026-05-07 11:47 | 27.63581 | 85.30119 | 5619 ft | 149 kts | 85° |
| 2026-05-07 11:47 | 27.63816 | 85.31315 | 5501 ft | 165 kts | 75° |
| 2026-05-07 11:48 | 27.64231 | 85.32623 | 5558 ft | 190 kts | 60° |
| 2026-05-07 11:48 | 27.65118 | 85.33664 | 5252 ft | 179 kts | 34° |
| 2026-05-07 11:48 | 27.66153 | 85.34346 | 4913 ft | 167 kts | 24° |
| 2026-05-07 11:48 | 27.67191 | 85.34798 | 4675 ft | 157 kts | 19° |
| 2026-05-07 11:49 | 27.68157 | 85.35240 | 4494 ft | 143 kts | 20° |
| 2026-05-07 11:49 | 27.69053 | 85.35642 | 4399 ft | 123 kts | 22° |
| 2026-05-07 11:49 | 27.69596 | 85.35889 | 4399 ft | 55 kts | 21° |
| 2026-05-07 11:49 | 27.69880 | 85.36018 | 4398 ft | 30 kts | 23° |
| 2026-05-07 11:50 | 27.70043 | 85.36093 | 4398 ft | 23 kts | 18° |
| 2026-05-07 11:50 | 27.70159 | 85.36120 | 4399 ft | 15 kts | 341° |
| 2026-05-07 11:50 | 27.70191 | 85.36048 | 4398 ft | 11 kts | 237° |
| 2026-05-07 11:50 | 27.69815 | 85.35763 | 4397 ft | 0 kts | 292° |